TNCA/AUA METAR and TAF weather

Enter ICAO airport designator
Station Type Date Time Source
TNCA METAR 2024/06/15 22:00 UTC NOAA

TNCA 152200Z 08021KT 9999 SCT018 30/26 Q1010 NOSIG


Station Type Date Time Source
TNCA Decoded METAR 2024/06/15 22:00 UTC NOAA

Queen Beatrix Airport, Aruba (TNCA) 12-30N 070-01W 33M
Jun 15, 2024 - 06:00 PM EDT / 2024.06.15 2200 UTC
Wind: from the E (080 degrees) at 24 MPH (21 KT):0
Visibility: greater than 7 mile(s):0
Sky conditions: partly cloudy
Temperature: 86 F (30 C)
Heat index: 99.3 F (37.4 C):1
Dew Point: 78 F (26 C)
Relative Humidity: 79%
Pressure (altimeter): 29.83 in. Hg (1010 hPa)
ob: TNCA 152200Z 08021KT 9999 SCT018 30/26 Q1010 NOSIG
cycle: 22

Station Type Date Time Source
TNCA TAF 2024/06/15 18:12 UTC NOAA